Time;durP1;ratioP1;P1;durP2;ratioP2;P2;SDS_P1;SDS_P2;PMS_P1;PMS_P2;Temp;Humidity;BMP_temperature;BMP_pressure;BME280_temperature;BME280_humidity;BME280_pressure;Samples;Min_cycle;Max_cycle;Signal;HPM_P1;HPM_P2
2021/04/15 00:02:20;;;;;;;0.50;0.40;;;;;;;1.86;83.98;102244.94;5073681;28;20515;-69
2021/04/15 00:04:46;;;;;;;0.40;0.30;;;;;;;1.83;84.55;102240.81;5073680;28;20441;-70
2021/04/15 00:07:13;;;;;;;2.83;1.30;;;;;;;1.69;84.12;102239.97;5074088;28;20554;-70
2021/04/15 00:09:39;;;;;;;0.40;0.30;;;;;;;1.84;82.62;102239.78;5073566;28;20433;-70
2021/04/15 00:12:06;;;;;;;0.50;0.40;;;;;;;1.76;82.92;102240.78;5098645;22;20497;-70
2021/04/15 00:14:32;;;;;;;0.40;0.30;;;;;;;1.75;82.90;102233.81;5073447;28;20479;-70
2021/04/15 00:16:58;;;;;;;0.97;0.43;;;;;;;1.68;82.12;102238.34;5072806;28;20456;-69
2021/04/15 00:19:24;;;;;;;0.83;0.60;;;;;;;1.74;82.19;102242.84;5073449;28;20815;-69
2021/04/15 00:21:50;;;;;;;0.50;0.50;;;;;;;1.79;83.16;102241.44;5073266;28;21035;-69
2021/04/15 00:24:16;;;;;;;0.40;0.30;;;;;;;1.66;84.61;102235.03;5072718;28;20485;-69
2021/04/15 00:26:43;;;;;;;0.40;0.30;;;;;;;1.65;84.21;102240.56;5073363;28;20481;-69
2021/04/15 00:29:09;;;;;;;1.67;1.07;;;;;;;1.74;83.82;102234.03;5073343;28;20437;-69
2021/04/15 00:31:36;;;;;;;0.40;0.30;;;;;;;1.68;82.94;102229.47;5073297;28;20441;-69
2021/04/15 00:34:02;;;;;;;0.40;0.30;;;;;;;1.54;83.07;102236.63;5078856;28;20463;-70
2021/04/15 00:36:28;;;;;;;2.20;1.23;;;;;;;1.39;83.14;102241.28;5073442;28;20437;-70
2021/04/15 00:38:55;;;;;;;0.50;0.30;;;;;;;1.35;84.44;102232.84;5073304;28;20471;-70
2021/04/15 00:41:23;;;;;;;0.40;0.30;;;;;;;1.40;84.64;102232.25;5073249;28;20434;-70
2021/04/15 00:43:49;;;;;;;0.40;0.30;;;;;;;1.49;82.55;102241.75;5073152;28;20462;-70
2021/04/15 00:46:39;;;;;;;0.40;0.30;;;;;;;1.40;83.70;102233.06;5073075;28;20497;-71
2021/04/15 00:49:05;;;;;;;0.40;0.30;;;;;;;1.41;83.51;102229.38;5073107;28;20437;-72
2021/04/15 00:51:34;;;;;;;0.40;0.20;;;;;;;1.45;83.69;102232.47;5073031;28;20433;-71
2021/04/15 00:54:04;;;;;;;0.63;0.60;;;;;;;1.44;83.30;102233.50;5072781;28;20459;-71
2021/04/15 00:56:31;;;;;;;0.40;0.30;;;;;;;1.39;83.67;102238.63;5073101;28;20461;-71
2021/04/15 00:58:58;;;;;;;0.40;0.30;;;;;;;1.37;84.29;102237.97;5073049;28;20441;-71
2021/04/15 01:01:25;;;;;;;0.40;0.30;;;;;;;1.46;83.39;102239.47;5073066;28;20452;-71
2021/04/15 01:03:51;;;;;;;0.83;0.83;;;;;;;1.51;82.51;102232.53;5072915;28;20465;-71
2021/04/15 01:06:17;;;;;;;0.50;0.47;;;;;;;1.42;82.42;102232.91;5072931;28;20481;-71
2021/04/15 01:08:43;;;;;;;0.40;0.40;;;;;;;1.36;83.67;102225.66;5072986;28;20437;-71
2021/04/15 01:11:16;;;;;;;0.50;0.40;;;;;;;1.42;83.36;102230.22;5073001;28;20445;-71
2021/04/15 01:13:56;;;;;;;0.40;0.30;;;;;;;1.45;83.84;102235.16;5072688;28;20566;-71
2021/04/15 01:16:30;;;;;;;0.50;0.40;;;;;;;1.45;83.66;102227.13;5072792;28;20910;-71
2021/04/15 01:19:07;;;;;;;1.33;0.70;;;;;;;1.45;83.29;102225.28;5072871;28;20468;-71
2021/04/15 01:21:51;;;;;;;0.40;0.30;;;;;;;1.65;82.74;102227.22;5073048;28;20413;-71
2021/04/15 01:24:24;;;;;;;0.40;0.40;;;;;;;1.65;83.71;102229.88;5072948;28;20433;-71
2021/04/15 01:27:21;;;;;;;0.40;0.30;;;;;;;1.65;83.86;102219.22;5072804;28;20469;-71
2021/04/15 01:29:53;;;;;;;0.40;0.30;;;;;;;1.71;83.47;102227.22;5072854;28;20425;-71
2021/04/15 01:32:25;;;;;;;1.13;1.13;;;;;;;1.80;83.37;102217.19;5072409;28;21006;-71
2021/04/15 01:34:57;;;;;;;0.40;0.30;;;;;;;1.79;83.03;102220.88;5072852;28;20468;-70
2021/04/15 01:37:32;;;;;;;0.40;0.30;;;;;;;1.75;83.78;102220.47;5072414;28;20838;-71
2021/04/15 01:40:06;;;;;;;0.40;0.30;;;;;;;1.76;83.37;102216.75;5072733;28;20432;-71
2021/04/15 01:42:37;;;;;;;0.40;0.30;;;;;;;1.89;82.36;102221.31;5072689;28;20463;-71
2021/04/15 01:45:08;;;;;;;0.77;0.70;;;;;;;1.85;82.06;102213.91;5072699;28;20441;-70
2021/04/15 01:47:39;;;;;;;0.40;0.33;;;;;;;1.74;83.14;102218.81;5072861;28;20465;-71
2021/04/15 01:50:14;;;;;;;0.40;0.30;;;;;;;1.65;83.44;102214.69;5072345;28;20937;-71
2021/04/15 01:52:42;;;;;;;0.40;0.30;;;;;;;1.59;83.16;102211.97;5072591;28;20464;-68
2021/04/15 01:55:17;;;;;;;0.40;0.30;;;;;;;1.62;82.77;102215.09;5072218;28;20469;-70
2021/04/15 01:57:51;;;;;;;1.10;0.50;;;;;;;1.54;84.34;102211.75;5072222;28;20424;-68
2021/04/15 02:00:24;;;;;;;0.40;0.40;;;;;;;1.58;83.49;102213.84;5074834;28;20430;-70
2021/04/15 02:02:55;;;;;;;0.40;0.30;;;;;;;1.52;83.42;102214.66;5076019;28;20484;-70
2021/04/15 02:05:25;;;;;;;0.40;0.30;;;;;;;1.41;83.15;102209.88;5075973;28;20426;-70
2021/04/15 02:07:54;;;;;;;1.23;1.03;;;;;;;1.42;83.37;102211.53;5076149;28;20477;-70
2021/04/15 02:10:21;;;;;;;0.40;0.30;;;;;;;1.50;83.29;102220.16;5075851;28;20449;-70
2021/04/15 02:12:52;;;;;;;0.87;0.87;;;;;;;1.64;82.47;102213.03;5075568;28;20484;-70
2021/04/15 02:15:23;;;;;;;0.40;0.30;;;;;;;1.64;82.37;102215.72;5075842;28;20409;-70
2021/04/15 02:17:51;;;;;;;0.40;0.40;;;;;;;1.47;83.02;102215.25;5075809;28;20424;-70
2021/04/15 02:20:21;;;;;;;0.63;0.40;;;;;;;1.48;84.19;102218.75;5075680;28;20821;-70
2021/04/15 02:22:54;;;;;;;1.03;1.03;;;;;;;1.50;83.59;102214.81;5075629;28;20502;-70
2021/04/15 02:25:25;;;;;;;1.80;1.70;;;;;;;1.63;83.26;102221.25;5075644;28;20424;-70
2021/04/15 02:28:01;;;;;;;0.60;0.50;;;;;;;1.64;83.27;102217.53;5075550;28;20461;-70
2021/04/15 02:30:34;;;;;;;0.40;0.40;;;;;;;1.58;83.16;102219.19;5075565;28;20432;-70
2021/04/15 02:33:06;;;;;;;0.40;0.30;;;;;;;1.59;82.69;102212.81;5075483;28;20472;-70
2021/04/15 02:35:38;;;;;;;0.40;0.30;;;;;;;1.47;84.01;102215.25;5075168;28;20903;-70
2021/04/15 02:38:05;;;;;;;0.40;0.30;;;;;;;1.61;83.33;102212.63;5075624;28;20429;-70
2021/04/15 02:40:36;;;;;;;0.40;0.33;;;;;;;1.68;83.04;102219.63;5075354;28;20468;-69
2021/04/15 02:43:06;;;;;;;0.40;0.30;;;;;;;1.68;83.28;102214.28;5075228;28;20469;-70
2021/04/15 02:45:39;;;;;;;0.50;0.50;;;;;;;1.64;83.24;102213.03;5074855;28;20873;-70
2021/04/15 02:48:08;;;;;;;0.40;0.30;;;;;;;1.61;82.86;102212.63;5035393;28;20467;-70
2021/04/15 02:50:35;;;;;;;0.40;0.30;;;;;;;1.52;84.10;102206.63;5035265;28;20431;-70
2021/04/15 02:53:09;;;;;;;2.60;0.77;;;;;;;1.50;84.38;102214.81;5035297;28;20467;-71
2021/04/15 02:55:41;;;;;;;0.40;0.30;;;;;;;1.55;84.14;102214.25;5035291;28;20423;-70
2021/04/15 02:58:15;;;;;;;0.40;0.30;;;;;;;1.49;84.73;102209.69;5040692;28;20424;-71
2021/04/15 03:00:47;;;;;;;0.40;0.30;;;;;;;1.54;84.39;102206.44;5035110;28;20437;-71
2021/04/15 03:03:16;;;;;;;0.40;0.30;;;;;;;1.49;83.83;102215.84;5034929;28;20471;-71
2021/04/15 03:05:46;;;;;;;0.63;0.63;;;;;;;1.55;84.12;102205.41;5034942;28;20498;-71
2021/04/15 03:08:16;;;;;;;0.40;0.30;;;;;;;1.51;83.79;102207.66;5034859;28;20540;-70
2021/04/15 03:10:48;;;;;;;0.53;0.50;;;;;;;1.47;84.09;102209.91;5033471;28;20901;-71
2021/04/15 03:13:17;;;;;;;0.50;0.40;;;;;;;1.45;84.03;102208.44;5034607;28;20518;-70
2021/04/15 03:15:48;;;;;;;0.73;0.73;;;;;;;1.45;83.52;102211.94;5034496;28;20971;-70
2021/04/15 03:18:18;;;;;;;0.40;0.30;;;;;;;1.40;83.37;102205.56;5034719;28;20423;-70
2021/04/15 03:20:49;;;;;;;0.40;0.30;;;;;;;1.18;84.52;102211.00;5034698;28;20432;-70
2021/04/15 03:23:26;;;;;;;4.13;0.70;;;;;;;1.21;85.08;102220.47;5034512;28;20459;-70
2021/04/15 03:25:53;;;;;;;0.40;0.33;;;;;;;1.28;84.72;102218.66;5034643;28;20428;-69
2021/04/15 03:28:26;;;;;;;2.30;1.13;;;;;;;1.16;84.41;102218.41;5034444;28;20537;-70
2021/04/15 03:30:58;;;;;;;0.40;0.30;;;;;;;1.06;86.11;102212.59;5034487;28;20456;-70
2021/04/15 03:33:28;;;;;;;0.40;0.30;;;;;;;1.15;85.99;102214.09;5034368;28;20463;-70
2021/04/15 03:36:02;;;;;;;0.80;0.80;;;;;;;1.14;85.07;102214.28;5034431;28;20481;-70
2021/04/15 03:38:32;;;;;;;0.40;0.33;;;;;;;1.05;84.79;102216.28;5034376;28;20518;-70
2021/04/15 03:41:06;;;;;;;0.40;0.30;;;;;;;1.11;84.83;102212.84;5034656;28;20490;-70
2021/04/15 03:43:35;;;;;;;0.40;0.30;;;;;;;1.18;84.67;102219.00;5034202;28;20458;-70
2021/04/15 03:46:08;;;;;;;0.40;0.30;;;;;;;1.23;84.87;102215.75;5034243;28;20447;-70
2021/04/15 03:48:39;;;;;;;0.40;0.30;;;;;;;1.08;85.00;102213.22;5034149;28;20482;-70
2021/04/15 03:51:08;;;;;;;0.40;0.30;;;;;;;1.09;85.11;102219.38;5034151;28;20424;-69
2021/04/15 03:53:38;;;;;;;0.40;0.30;;;;;;;1.15;84.71;102219.44;5034001;28;20832;-70
2021/04/15 03:56:09;;;;;;;0.40;0.30;;;;;;;1.14;84.88;102217.75;5033959;28;20439;-70
2021/04/15 03:58:40;;;;;;;0.40;0.30;;;;;;;1.02;85.59;102216.69;5033674;28;20435;-70
2021/04/15 04:01:09;;;;;;;0.60;0.40;;;;;;;1.04;85.78;102221.81;5034177;28;20412;-69
2021/04/15 04:03:38;;;;;;;0.40;0.30;;;;;;;1.08;84.99;102215.06;5033774;28;20477;-70
2021/04/15 04:06:08;;;;;;;1.53;1.43;;;;;;;1.11;84.86;102214.69;5033789;28;20492;-70
2021/04/15 04:08:42;;;;;;;0.50;0.40;;;;;;;1.13;84.58;102216.13;5033738;28;20493;-70
2021/04/15 04:11:11;;;;;;;0.40;0.30;;;;;;;0.95;85.89;102221.97;5033489;28;21012;-70
2021/04/15 04:13:42;;;;;;;1.00;1.00;;;;;;;0.99;85.78;102220.56;5033587;28;20474;-70
2021/04/15 04:16:15;;;;;;;0.40;0.30;;;;;;;1.04;85.06;102219.16;5033312;28;20975;-70
2021/04/15 04:18:51;;;;;;;0.40;0.30;;;;;;;0.97;85.89;102219.94;5033329;28;20908;-70
2021/04/15 04:21:22;;;;;;;0.40;0.30;;;;;;;0.98;86.33;102220.78;5033619;28;20477;-70
2021/04/15 04:23:55;;;;;;;0.40;0.40;;;;;;;1.04;85.68;102227.97;5033188;28;20474;-70
2021/04/15 04:26:28;;;;;;;0.63;0.63;;;;;;;1.10;85.82;102229.84;5033409;28;20427;-70
2021/04/15 04:29:09;;;;;;;0.40;0.40;;;;;;;1.10;85.82;102237.03;5033519;28;20789;-70
2021/04/15 04:31:41;;;;;;;1.40;1.30;;;;;;;1.13;85.23;102232.13;5033451;28;20538;-70
2021/04/15 04:34:08;;;;;;;0.40;0.30;;;;;;;1.13;85.88;102236.66;5033427;28;20432;-69
2021/04/15 04:36:36;;;;;;;0.40;0.30;;;;;;;1.16;86.06;102237.09;5033338;28;20959;-70
2021/04/15 04:39:06;;;;;;;0.50;0.40;;;;;;;1.14;86.48;102236.44;5033281;28;20449;-70
2021/04/15 04:41:51;;;;;;;0.40;0.33;;;;;;;1.10;87.03;102240.53;5038241;28;20447;-70
2021/04/15 04:44:23;;;;;;;0.50;0.40;;;;;;;1.13;87.17;102245.47;5033315;28;20474;-71
2021/04/15 04:46:54;;;;;;;0.40;0.40;;;;;;;1.20;87.07;102251.69;5033257;28;20517;-71
2021/04/15 04:49:25;;;;;;;0.40;0.30;;;;;;;1.33;86.22;102252.75;5032976;28;20439;-70
2021/04/15 04:51:54;;;;;;;0.40;0.30;;;;;;;1.38;85.15;102253.00;5033205;28;20467;-70
2021/04/15 04:54:22;;;;;;;0.50;0.50;;;;;;;1.30;86.28;102247.81;5033463;28;20457;-70
2021/04/15 04:56:53;;;;;;;0.50;0.40;;;;;;;1.34;86.50;102255.25;5033364;28;20449;-70
2021/04/15 04:59:24;;;;;;;0.40;0.30;;;;;;;1.45;85.86;102256.50;5033188;28;20534;-70
2021/04/15 05:01:51;;;;;;;0.40;0.30;;;;;;;1.50;85.85;102256.72;5032858;28;20988;-70
2021/04/15 05:04:19;;;;;;;0.40;0.30;;;;;;;1.46;86.55;102256.31;5033075;28;20448;-69
2021/04/15 05:06:47;;;;;;;0.50;0.50;;;;;;;1.60;85.93;102257.19;5032688;28;21008;-69
2021/04/15 05:09:20;;;;;;;0.73;0.50;;;;;;;1.68;85.55;102257.03;5033034;28;20469;-69
2021/04/15 05:11:49;;;;;;;0.93;0.93;;;;;;;1.81;85.31;102258.06;5032850;28;20430;-69
2021/04/15 05:14:19;;;;;;;0.47;0.40;;;;;;;1.86;85.23;102261.81;5032988;28;20841;-67
2021/04/15 05:16:49;;;;;;;0.40;0.30;;;;;;;1.89;85.12;102257.88;5032665;28;20971;-67
2021/04/15 05:19:17;;;;;;;0.40;0.40;;;;;;;1.90;84.84;102259.53;5032631;28;20886;-67
2021/04/15 05:21:44;;;;;;;2.30;0.87;;;;;;;1.97;84.73;102265.72;5032965;28;20443;-69
2021/04/15 05:24:15;;;;;;;0.40;0.37;;;;;;;2.03;84.76;102256.88;5032602;28;20948;-69
2021/04/15 05:26:43;;;;;;;0.40;0.33;;;;;;;2.06;84.92;102253.81;5032845;28;20430;-69
2021/04/15 05:29:16;;;;;;;0.70;0.70;;;;;;;2.13;84.84;102261.88;5032814;28;20439;-69
2021/04/15 05:31:45;;;;;;;1.33;1.00;;;;;;;2.24;84.10;102262.06;5032618;28;20459;-69
2021/04/15 05:34:22;;;;;;;0.40;0.30;;;;;;;2.34;83.94;102266.19;5033237;28;20963;-68
2021/04/15 05:36:50;;;;;;;0.60;0.50;;;;;;;2.39;84.02;102269.06;5036657;28;20423;-69
2021/04/15 05:39:18;;;;;;;1.17;0.67;;;;;;;2.35;83.91;102257.16;5036595;28;20446;-69
2021/04/15 05:41:56;;;;;;;0.60;0.60;;;;;;;2.44;84.47;102271.97;5036778;28;20443;-69
2021/04/15 05:44:27;;;;;;;0.60;0.50;;;;;;;2.50;84.66;102263.94;5036535;28;20438;-69
2021/04/15 05:46:55;;;;;;;1.40;1.30;;;;;;;2.58;83.90;102267.44;5036402;28;20512;-69
2021/04/15 05:49:25;;;;;;;0.63;0.63;;;;;;;2.64;84.06;102264.75;5036358;28;20454;-69
2021/04/15 05:52:01;;;;;;;0.67;0.47;;;;;;;2.71;84.42;102267.44;5053852;28;20838;-69
2021/04/15 05:54:29;;;;;;;1.23;0.50;;;;;;;2.79;84.25;102264.56;5055935;28;20434;-69
2021/04/15 05:57:01;;;;;;;0.60;0.60;;;;;;;2.81;83.80;102264.34;5056040;28;20448;-70
2021/04/15 05:59:39;;;;;;;0.40;0.30;;;;;;;2.86;84.26;102269.88;5055787;28;20429;-70
2021/04/15 06:02:18;;;;;;;0.40;0.40;;;;;;;2.97;83.80;102271.94;5056196;28;20549;-72
2021/04/15 06:04:52;;;;;;;0.40;0.30;;;;;;;3.10;83.83;102274.59;5056051;28;20481;-71
2021/04/15 06:07:21;;;;;;;2.50;2.30;;;;;;;3.21;83.47;102271.25;5055901;28;20465;-72
2021/04/15 06:09:48;;;;;;;0.40;0.40;;;;;;;3.31;83.24;102272.69;5055893;28;20449;-72
2021/04/15 06:12:20;;;;;;;0.40;0.30;;;;;;;3.41;82.02;102278.41;5056870;28;20523;-72
2021/04/15 06:14:49;;;;;;;1.17;0.73;;;;;;;3.46;81.19;102275.94;5055880;28;20427;-72
2021/04/15 06:17:32;;;;;;;0.40;0.30;;;;;;;3.57;81.09;102285.16;5055490;28;20939;-72
2021/04/15 06:20:04;;;;;;;0.70;0.40;;;;;;;3.55;80.51;102285.38;5055504;28;20987;-72
2021/04/15 06:22:33;;;;;;;0.40;0.30;;;;;;;3.63;80.15;102279.78;5061352;28;20459;-72
2021/04/15 06:25:04;;;;;;;0.50;0.40;;;;;;;3.53;80.09;102276.72;5055935;28;20442;-72
2021/04/15 06:27:30;;;;;;;0.87;0.87;;;;;;;3.61;79.94;102284.53;5054983;28;20481;-72
2021/04/15 06:30:02;;;;;;;0.60;0.40;;;;;;;3.68;80.21;102282.66;5035290;28;21010;-72
2021/04/15 06:32:36;;;;;;;0.40;0.30;;;;;;;3.74;79.66;102279.09;5035234;28;20980;-72
2021/04/15 06:35:04;;;;;;;0.40;0.40;;;;;;;3.89;79.67;102280.66;5035477;28;20424;-72
2021/04/15 06:37:39;;;;;;;0.40;0.30;;;;;;;3.95;79.19;102282.50;5035477;28;20446;-72
2021/04/15 06:40:40;;;;;;;0.50;0.43;;;;;;;4.16;78.38;102281.34;5035435;28;20421;-72
2021/04/15 06:43:21;;;;;;;0.90;0.53;;;;;;;4.17;77.30;102285.69;5035267;28;20474;-72
2021/04/15 06:45:58;;;;;;;0.40;0.30;;;;;;;4.14;77.54;102284.25;5035123;28;20423;-72
2021/04/15 06:48:42;;;;;;;0.40;0.30;;;;;;;4.42;77.38;102269.59;5035097;28;20466;-72
2021/04/15 06:51:41;;;;;;;0.50;0.40;;;;;;;4.52;76.88;102278.00;5035188;28;20438;-72
2021/04/15 06:54:20;;;;;;;0.50;0.47;;;;;;;4.66;76.11;102270.66;5034880;28;20420;-72
2021/04/15 06:57:07;;;;;;;0.40;0.37;;;;;;;4.60;75.97;102283.06;5034992;28;20447;-71
2021/04/15 06:59:42;;;;;;;0.50;0.50;;;;;;;4.70;75.64;102275.38;5034768;28;20420;-72
2021/04/15 07:02:11;;;;;;;0.40;0.30;;;;;;;4.76;74.71;102271.81;5034792;28;20462;-72
2021/04/15 07:04:44;;;;;;;0.50;0.37;;;;;;;4.99;73.57;102271.16;5034785;28;20447;-72
2021/04/15 07:07:16;;;;;;;0.40;0.30;;;;;;;5.04;72.83;102283.94;5034752;28;20505;-72
2021/04/15 07:10:03;;;;;;;2.50;1.50;;;;;;;5.13;72.96;102281.78;5035022;28;20449;-72
2021/04/15 07:12:48;;;;;;;0.40;0.30;;;;;;;5.29;72.54;102276.63;5034569;28;20479;-72
2021/04/15 07:15:35;;;;;;;0.60;0.50;;;;;;;5.37;71.80;102274.72;5034860;28;20446;-72
2021/04/15 07:18:14;;;;;;;0.40;0.30;;;;;;;5.50;71.71;102277.25;5034719;28;20423;-70
2021/04/15 07:20:56;;;;;;;0.40;0.40;;;;;;;5.66;71.16;102268.53;5034584;28;20428;-70
2021/04/15 07:23:43;;;;;;;1.27;0.50;;;;;;;5.62;69.95;102274.59;5034641;28;20463;-69
2021/04/15 07:26:45;;;;;;;0.40;0.40;;;;;;;5.51;69.75;102270.81;5034570;28;20477;-70
2021/04/15 07:29:30;;;;;;;0.50;0.30;;;;;;;5.80;69.46;102283.47;5034555;28;20431;-70
2021/04/15 07:32:10;;;;;;;1.70;0.93;;;;;;;5.87;68.23;102278.00;5034129;28;20470;-70
2021/04/15 07:35:01;;;;;;;0.40;0.30;;;;;;;6.14;68.02;102281.16;5034461;28;20430;-69
2021/04/15 07:37:45;;;;;;;0.40;0.30;;;;;;;6.36;68.03;102284.16;5034392;28;20473;-69
2021/04/15 07:40:36;;;;;;;0.50;0.40;;;;;;;6.44;66.58;102277.63;5034307;28;20427;-70
2021/04/15 07:43:23;;;;;;;0.60;0.30;;;;;;;6.55;66.37;102284.88;5034205;28;20474;-71
2021/04/15 07:46:06;;;;;;;0.50;0.30;;;;;;;6.57;64.84;102289.00;5034176;28;20916;-70
2021/04/15 07:49:07;;;;;;;1.67;0.60;;;;;;;6.83;65.23;102285.03;5034032;28;20509;-70
2021/04/15 07:51:46;;;;;;;0.67;0.43;;;;;;;6.73;64.12;102282.13;5033999;28;20517;-70
2021/04/15 07:54:54;;;;;;;0.93;0.40;;;;;;;6.78;63.25;102284.94;5034096;28;20518;-70
2021/04/15 07:57:48;;;;;;;0.50;0.50;;;;;;;6.78;62.25;102284.94;5029778;28;20455;-71
2021/04/15 08:00:51;;;;;;;0.40;0.30;;;;;;;7.12;63.44;102284.31;5033627;28;20935;-71
2021/04/15 08:03:46;;;;;;;0.40;0.30;;;;;;;6.82;59.02;102283.41;5033797;28;20474;-71
2021/04/15 08:06:29;;;;;;;0.40;0.30;;;;;;;6.85;61.36;102283.97;5039353;28;20404;-73
2021/04/15 08:09:29;;;;;;;0.50;0.40;;;;;;;6.85;59.21;102286.66;5033725;28;20485;-74
2021/04/15 08:12:09;;;;;;;0.60;0.40;;;;;;;7.09;59.83;102285.63;5033224;28;20893;-73
2021/04/15 08:15:00;;;;;;;1.10;0.60;;;;;;;7.00;57.09;102292.44;5033725;28;20427;-74
2021/04/15 08:18:02;;;;;;;0.40;0.30;;;;;;;7.19;56.94;102287.72;5033664;28;20428;-73
2021/04/15 08:20:44;;;;;;;0.40;0.30;;;;;;;7.19;56.72;102288.53;5033613;28;20427;-73
2021/04/15 08:23:55;;;;;;;0.40;0.30;;;;;;;7.44;56.55;102284.75;5033605;28;20485;-73
2021/04/15 08:27:02;;;;;;;0.40;0.30;;;;;;;7.54;54.53;102287.66;5033086;28;20447;-74
2021/04/15 08:30:06;;;;;;;0.50;0.40;;;;;;;7.66;52.04;102282.22;5033176;28;20431;-73
2021/04/15 08:32:46;;;;;;;0.40;0.30;;;;;;;7.62;49.73;102283.78;5033374;28;20463;-74
2021/04/15 08:35:20;;;;;;;0.40;0.30;;;;;;;7.66;50.56;102283.06;5033405;28;20423;-74
2021/04/15 08:37:55;;;;;;;0.40;0.30;;;;;;;7.47;48.35;102286.97;5033417;28;20446;-74
2021/04/15 08:40:31;;;;;;;0.40;0.30;;;;;;;7.71;50.33;102282.34;5033428;28;20446;-74
2021/04/15 08:43:13;;;;;;;0.40;0.30;;;;;;;7.80;49.36;102280.91;5032952;28;20830;-74
2021/04/15 08:45:48;;;;;;;0.40;0.20;;;;;;;8.00;49.81;102288.53;5033105;28;20916;-74
2021/04/15 08:48:28;;;;;;;0.87;0.87;;;;;;;8.17;50.44;102278.59;5033165;28;20835;-74
2021/04/15 08:51:04;;;;;;;0.50;0.30;;;;;;;8.32;49.71;102278.03;5033323;28;20788;-74
2021/04/15 08:54:02;;;;;;;0.40;0.30;;;;;;;8.63;50.46;102279.41;5033319;28;20467;-74
2021/04/15 08:56:32;;;;;;;0.40;0.30;;;;;;;8.67;47.94;102283.25;5033271;28;20489;-74
2021/04/15 08:59:19;;;;;;;0.40;0.40;;;;;;;8.47;47.55;102275.66;5033270;28;20494;-74
2021/04/15 09:01:52;;;;;;;0.50;0.40;;;;;;;8.61;48.42;102281.53;5033165;28;20440;-74
2021/04/15 09:04:28;;;;;;;0.40;0.30;;;;;;;8.33;47.75;102272.41;5033161;28;20420;-74
2021/04/15 09:07:03;;;;;;;0.50;0.40;;;;;;;8.57;49.41;102275.81;5033123;28;20419;-74
2021/04/15 09:09:40;;;;;;;0.40;0.30;;;;;;;8.80;46.63;102272.09;5036093;28;20419;-74
2021/04/15 09:12:26;;;;;;;0.40;0.30;;;;;;;8.77;43.93;102277.22;5036909;28;20482;-75
2021/04/15 09:15:26;;;;;;;0.40;0.30;;;;;;;8.61;45.44;102265.34;5037066;28;20431;-72
2021/04/15 09:17:59;;;;;;;5.50;0.40;;;;;;;8.64;44.80;102269.44;4956562;29;20427;-73
2021/04/15 09:20:34;;;;;;;0.40;0.30;;;;;;;8.65;43.84;102266.47;5023756;28;20459;-73
2021/04/15 09:23:13;;;;;;;0.40;0.30;;;;;;;8.94;45.91;102271.75;5036728;28;20870;-73
2021/04/15 09:25:46;;;;;;;0.50;0.40;;;;;;;9.02;44.70;102276.75;5036799;28;20423;-74
2021/04/15 09:28:22;;;;;;;0.40;0.30;;;;;;;9.22;45.11;102271.63;5036722;28;20463;-72
2021/04/15 09:31:02;;;;;;;0.40;0.40;;;;;;;9.31;44.05;102282.84;5036875;28;20501;-73
2021/04/15 09:34:03;;;;;;;0.40;0.30;;;;;;;9.33;43.08;102267.16;5036659;28;20467;-71
2021/04/15 09:36:38;;;;;;;0.50;0.33;;;;;;;9.40;43.88;102267.00;5036216;28;20489;-73
2021/04/15 09:39:35;;;;;;;0.50;0.40;;;;;;;9.16;43.55;102267.19;5036664;28;20427;-73
2021/04/15 09:42:26;;;;;;;0.40;0.30;;;;;;;9.17;43.16;102268.88;5036547;28;20816;-74
2021/04/15 09:45:29;;;;;;;0.80;0.63;;;;;;;9.41;45.10;102268.63;5036499;28;20435;-73
2021/04/15 09:48:12;;;;;;;0.40;0.30;;;;;;;9.39;43.89;102257.25;5035788;28;20482;-74
2021/04/15 09:50:47;;;;;;;0.40;0.30;;;;;;;9.41;44.77;102261.31;5039175;28;20435;-74
2021/04/15 09:53:39;;;;;;;0.50;0.40;;;;;;;9.52;44.03;102268.50;5037964;28;20976;-74
2021/04/15 09:56:32;;;;;;;0.40;0.30;;;;;;;9.35;42.79;102259.63;5036521;28;20431;-74
2021/04/15 09:59:06;;;;;;;0.40;0.30;;;;;;;9.54;43.21;102265.53;5036388;28;20427;-75
2021/04/15 10:01:39;;;;;;;0.40;0.30;;;;;;;9.49;42.30;102265.47;5036150;28;20423;-75
2021/04/15 10:04:14;;;;;;;0.40;0.30;;;;;;;9.72;43.27;102257.09;5036213;28;20427;-74
2021/04/15 10:06:45;;;;;;;0.40;0.30;;;;;;;9.57;41.22;102257.75;5035870;28;20810;-73
2021/04/15 10:09:44;;;;;;;0.40;0.30;;;;;;;9.65;40.54;102252.94;5036057;28;20463;-75
2021/04/15 10:12:27;;;;;;;0.63;0.50;;;;;;;9.59;41.33;102252.88;5035615;28;20992;-74
2021/04/15 10:15:26;;;;;;;0.70;0.50;;;;;;;9.73;40.21;102253.31;5035599;28;20430;-74
2021/04/15 10:18:04;;;;;;;0.47;0.37;;;;;;;9.94;43.53;102257.03;5035801;28;20432;-74
2021/04/15 10:20:53;;;;;;;0.40;0.30;;;;;;;10.08;40.84;102257.44;5051950;28;20939;-71
2021/04/15 10:23:38;;;;;;;0.40;0.30;;;;;;;9.83;40.49;102250.72;5055599;28;20462;-71
2021/04/15 10:26:21;;;;;;;0.40;0.30;;;;;;;9.91;41.71;102251.31;5055255;28;20431;-68
2021/04/15 10:29:01;;;;;;;0.40;0.30;;;;;;;9.59;40.81;102261.00;5055570;28;20477;-71
2021/04/15 10:31:56;;;;;;;0.57;0.40;;;;;;;9.32;41.28;102260.13;5055594;28;20434;-71
2021/04/15 10:34:43;;;;;;;0.50;0.40;;;;;;;9.33;40.94;102251.75;5053106;28;20461;-71
2021/04/15 10:37:23;;;;;;;0.40;0.30;;;;;;;9.59;40.58;102260.19;5055460;28;20441;-72
2021/04/15 10:40:19;;;;;;;0.40;0.30;;;;;;;9.53;42.62;102256.59;5055458;28;20434;-72
2021/04/15 10:43:35;;;;;;;0.40;0.30;;;;;;;9.80;43.26;102261.22;5055214;28;20469;-72
2021/04/15 10:46:23;;;;;;;0.40;0.30;;;;;;;9.91;41.82;102259.44;5055172;28;20426;-70
2021/04/15 10:48:59;;;;;;;0.40;0.30;;;;;;;9.95;42.10;102253.25;5054876;28;20979;-69
2021/04/15 10:51:33;;;;;;;0.50;0.30;;;;;;;9.74;41.32;102252.25;5055360;28;20452;-69
2021/04/15 10:54:04;;;;;;;0.50;0.37;;;;;;;9.56;41.63;102255.25;5054854;28;20422;-70
2021/04/15 10:56:48;;;;;;;0.60;0.30;;;;;;;9.77;43.70;102257.13;5054912;28;20419;-69
2021/04/15 10:59:37;;;;;;;1.07;0.70;;;;;;;9.68;41.53;102274.88;5054151;28;20458;-69
2021/04/15 11:02:23;;;;;;;0.40;0.20;;;;;;;9.33;42.07;102259.03;5054895;28;20470;-70
2021/04/15 11:04:51;;;;;;;0.40;0.30;;;;;;;9.34;41.36;102261.53;5054993;28;20445;-70
2021/04/15 11:07:21;;;;;;;0.40;0.30;;;;;;;9.40;42.58;102257.00;5055033;28;20442;-70
2021/04/15 11:09:48;;;;;;;0.40;0.30;;;;;;;9.60;43.01;102254.50;5054771;28;20446;-70
2021/04/15 11:12:25;;;;;;;0.40;0.30;;;;;;;9.86;44.23;102258.31;5054595;28;20489;-70
2021/04/15 11:15:22;;;;;;;0.40;0.30;;;;;;;9.83;42.63;102248.03;5055133;28;20552;-69
2021/04/15 11:17:53;;;;;;;0.40;0.30;;;;;;;9.45;42.63;102267.06;5054183;28;20459;-70
2021/04/15 11:20:26;;;;;;;0.40;0.27;;;;;;;9.30;44.07;102260.38;5054662;28;20472;-69
2021/04/15 11:22:56;;;;;;;0.40;0.30;;;;;;;9.37;43.81;102257.47;5054382;28;20482;-70
2021/04/15 11:25:24;;;;;;;1.20;0.50;;;;;;;9.43;44.03;102253.78;5054655;28;20453;-69
2021/04/15 11:27:51;;;;;;;0.40;0.30;;;;;;;9.43;44.22;102252.94;5054550;28;20524;-69
2021/04/15 11:30:35;;;;;;;0.50;0.33;;;;;;;9.67;44.28;102253.50;5054405;28;20514;-70
2021/04/15 11:33:02;;;;;;;0.60;0.33;;;;;;;9.51;44.38;102261.44;5052556;28;20477;-70
2021/04/15 11:35:28;;;;;;;0.40;0.30;;;;;;;9.79;44.92;102243.38;5054353;28;20958;-69
2021/04/15 11:38:15;;;;;;;0.40;0.30;;;;;;;10.25;45.23;102243.81;5060266;28;20439;-69
2021/04/15 11:40:44;;;;;;;0.40;0.30;;;;;;;10.68;45.05;102242.81;5053948;28;20450;-70
2021/04/15 11:43:36;;;;;;;0.50;0.40;;;;;;;10.72;43.39;102256.66;5054085;28;21003;-70
2021/04/15 11:46:17;;;;;;;0.50;0.30;;;;;;;10.12;43.76;102264.00;5048902;28;20959;-70
2021/04/15 11:48:43;;;;;;;0.40;0.30;;;;;;;9.56;45.58;102269.63;5054355;28;20470;-69
2021/04/15 11:51:15;;;;;;;0.40;0.30;;;;;;;9.08;47.36;102273.88;5054139;28;20442;-69
2021/04/15 11:53:53;;;;;;;0.40;0.30;;;;;;;9.01;47.83;102258.91;5152261;27;20523;-69
2021/04/15 11:56:31;;;;;;;0.40;0.30;;;;;;;8.80;48.30;102252.38;5152386;27;20541;-69
2021/04/15 11:59:16;;;;;;;0.60;0.40;;;;;;;8.81;48.98;102262.94;5152038;27;20972;-69
2021/04/15 12:01:42;;;;;;;0.40;0.30;;;;;;;8.94;48.49;102250.13;5152249;27;20433;-68
2021/04/15 12:04:14;;;;;;;1.20;0.63;;;;;;;8.68;48.68;102257.06;5152238;27;20446;-68
2021/04/15 12:06:45;;;;;;;0.43;0.37;;;;;;;8.46;48.96;102254.31;5152238;27;20514;-69
2021/04/15 12:09:15;;;;;;;0.40;0.30;;;;;;;8.31;50.12;102254.81;5152393;27;20453;-68
2021/04/15 12:11:50;;;;;;;0.40;0.30;;;;;;;8.48;49.79;102250.28;5152123;27;20481;-68
2021/04/15 12:14:16;;;;;;;0.40;0.30;;;;;;;8.49;49.27;102243.81;5104314;22;20551;-63
2021/04/15 12:16:50;;;;;;;0.90;0.57;;;;;;;8.71;49.23;102243.88;5050322;28;20508;-63